sensor_id;sensor_type;location;lat;lon;timestamp;P1;durP1;ratioP1;P2;durP2;ratioP2
52786;SDS011;38661;53.152;5.846;2022-07-29T00:02:17;4.93;;;1.60;;
52786;SDS011;38661;53.152;5.846;2022-07-29T00:04:43;3.65;;;1.52;;
52786;SDS011;38661;53.152;5.846;2022-07-29T00:07:09;3.08;;;1.40;;
52786;SDS011;38661;53.152;5.846;2022-07-29T00:09:34;1.70;;;1.10;;
52786;SDS011;38661;53.152;5.846;2022-07-29T00:12:00;2.42;;;1.20;;
52786;SDS011;38661;53.152;5.846;2022-07-29T00:14:27;3.63;;;1.33;;
52786;SDS011;38661;53.152;5.846;2022-07-29T00:16:53;4.45;;;1.45;;
52786;SDS011;38661;53.152;5.846;2022-07-29T00:19:19;2.28;;;1.27;;
52786;SDS011;38661;53.152;5.846;2022-07-29T00:21:45;5.35;;;2.08;;
52786;SDS011;38661;53.152;5.846;2022-07-29T00:24:10;1.92;;;1.25;;
52786;SDS011;38661;53.152;5.846;2022-07-29T00:26:36;3.33;;;1.23;;
52786;SDS011;38661;53.152;5.846;2022-07-29T00:29:03;5.70;;;1.23;;
52786;SDS011;38661;53.152;5.846;2022-07-29T00:31:29;2.83;;;1.40;;
52786;SDS011;38661;53.152;5.846;2022-07-29T00:33:55;2.67;;;1.42;;
52786;SDS011;38661;53.152;5.846;2022-07-29T00:36:21;2.65;;;1.30;;
52786;SDS011;38661;53.152;5.846;2022-07-29T00:38:47;3.90;;;2.05;;
52786;SDS011;38661;53.152;5.846;2022-07-29T00:41:14;2.90;;;1.13;;
52786;SDS011;38661;53.152;5.846;2022-07-29T00:43:41;4.45;;;1.35;;
52786;SDS011;38661;53.152;5.846;2022-07-29T00:46:07;3.60;;;1.15;;
52786;SDS011;38661;53.152;5.846;2022-07-29T00:48:32;2.40;;;1.33;;
52786;SDS011;38661;53.152;5.846;2022-07-29T00:50:58;5.13;;;1.60;;
52786;SDS011;38661;53.152;5.846;2022-07-29T00:53:26;4.43;;;1.20;;
52786;SDS011;38661;53.152;5.846;2022-07-29T00:55:55;9.13;;;2.05;;
52786;SDS011;38661;53.152;5.846;2022-07-29T00:58:22;2.60;;;1.10;;
52786;SDS011;38661;53.152;5.846;2022-07-29T01:00:48;3.45;;;1.27;;
52786;SDS011;38661;53.152;5.846;2022-07-29T01:03:14;4.97;;;1.48;;
52786;SDS011;38661;53.152;5.846;2022-07-29T01:05:40;3.20;;;1.23;;
52786;SDS011;38661;53.152;5.846;2022-07-29T01:08:08;4.28;;;1.48;;
52786;SDS011;38661;53.152;5.846;2022-07-29T01:10:36;4.28;;;1.40;;
52786;SDS011;38661;53.152;5.846;2022-07-29T01:13:04;2.83;;;1.10;;
52786;SDS011;38661;53.152;5.846;2022-07-29T01:15:30;1.77;;;1.40;;
52786;SDS011;38661;53.152;5.846;2022-07-29T01:18:00;3.22;;;1.10;;
52786;SDS011;38661;53.152;5.846;2022-07-29T01:23:24;3.63;;;1.20;;
52786;SDS011;38661;53.152;5.846;2022-07-29T01:37:44;4.30;;;1.40;;
52786;SDS011;38661;53.152;5.846;2022-07-29T01:40:34;2.75;;;1.20;;
52786;SDS011;38661;53.152;5.846;2022-07-29T01:43:03;3.70;;;1.35;;
52786;SDS011;38661;53.152;5.846;2022-07-29T01:45:41;5.72;;;1.60;;
52786;SDS011;38661;53.152;5.846;2022-07-29T01:48:24;3.78;;;1.40;;
52786;SDS011;38661;53.152;5.846;2022-07-29T01:51:00;3.88;;;1.40;;
52786;SDS011;38661;53.152;5.846;2022-07-29T01:53:39;8.70;;;1.80;;
52786;SDS011;38661;53.152;5.846;2022-07-29T01:56:11;4.55;;;1.70;;
52786;SDS011;38661;53.152;5.846;2022-07-29T01:58:40;5.63;;;1.70;;
52786;SDS011;38661;53.152;5.846;2022-07-29T02:01:08;10.55;;;1.48;;
52786;SDS011;38661;53.152;5.846;2022-07-29T02:03:36;3.70;;;1.63;;
52786;SDS011;38661;53.152;5.846;2022-07-29T02:06:04;4.22;;;1.65;;
52786;SDS011;38661;53.152;5.846;2022-07-29T02:08:32;3.28;;;1.20;;
52786;SDS011;38661;53.152;5.846;2022-07-29T02:10:59;3.35;;;1.60;;
52786;SDS011;38661;53.152;5.846;2022-07-29T02:13:27;2.38;;;1.70;;
52786;SDS011;38661;53.152;5.846;2022-07-29T02:15:53;3.60;;;1.30;;
52786;SDS011;38661;53.152;5.846;2022-07-29T02:18:23;4.63;;;1.90;;
52786;SDS011;38661;53.152;5.846;2022-07-29T02:20:52;5.07;;;1.73;;
52786;SDS011;38661;53.152;5.846;2022-07-29T02:23:21;16.98;;;1.75;;
52786;SDS011;38661;53.152;5.846;2022-07-29T02:25:49;3.63;;;1.70;;
52786;SDS011;38661;53.152;5.846;2022-07-29T02:28:17;3.80;;;1.50;;
52786;SDS011;38661;53.152;5.846;2022-07-29T02:30:44;2.78;;;1.45;;
52786;SDS011;38661;53.152;5.846;2022-07-29T02:33:12;4.68;;;1.40;;
52786;SDS011;38661;53.152;5.846;2022-07-29T02:35:41;2.40;;;1.25;;
52786;SDS011;38661;53.152;5.846;2022-07-29T02:38:11;2.53;;;1.70;;
52786;SDS011;38661;53.152;5.846;2022-07-29T02:40:58;3.72;;;1.80;;
52786;SDS011;38661;53.152;5.846;2022-07-29T02:43:31;4.63;;;1.60;;
52786;SDS011;38661;53.152;5.846;2022-07-29T02:45:59;3.63;;;1.80;;
52786;SDS011;38661;53.152;5.846;2022-07-29T02:48:34;3.47;;;1.35;;
52786;SDS011;38661;53.152;5.846;2022-07-29T02:51:12;3.92;;;1.42;;
52786;SDS011;38661;53.152;5.846;2022-07-29T02:53:43;2.95;;;1.52;;
52786;SDS011;38661;53.152;5.846;2022-07-29T02:56:14;4.07;;;1.73;;
52786;SDS011;38661;53.152;5.846;2022-07-29T02:58:47;4.30;;;1.63;;
52786;SDS011;38661;53.152;5.846;2022-07-29T03:01:24;3.50;;;1.80;;
52786;SDS011;38661;53.152;5.846;2022-07-29T03:03:55;3.40;;;1.75;;
52786;SDS011;38661;53.152;5.846;2022-07-29T03:06:22;3.15;;;1.55;;
52786;SDS011;38661;53.152;5.846;2022-07-29T03:08:50;3.58;;;1.80;;
52786;SDS011;38661;53.152;5.846;2022-07-29T03:11:16;3.83;;;1.80;;
52786;SDS011;38661;53.152;5.846;2022-07-29T03:13:42;2.70;;;2.20;;
52786;SDS011;38661;53.152;5.846;2022-07-29T03:16:09;3.30;;;1.77;;
52786;SDS011;38661;53.152;5.846;2022-07-29T03:18:35;4.85;;;1.70;;
52786;SDS011;38661;53.152;5.846;2022-07-29T03:21:02;2.25;;;1.60;;
52786;SDS011;38661;53.152;5.846;2022-07-29T03:23:28;5.55;;;1.90;;
52786;SDS011;38661;53.152;5.846;2022-07-29T03:25:54;3.22;;;1.80;;
52786;SDS011;38661;53.152;5.846;2022-07-29T03:28:20;4.50;;;2.00;;
52786;SDS011;38661;53.152;5.846;2022-07-29T03:30:47;5.00;;;1.70;;
52786;SDS011;38661;53.152;5.846;2022-07-29T03:33:13;2.42;;;1.50;;
52786;SDS011;38661;53.152;5.846;2022-07-29T03:35:40;2.35;;;1.67;;
52786;SDS011;38661;53.152;5.846;2022-07-29T03:38:05;3.55;;;1.92;;
52786;SDS011;38661;53.152;5.846;2022-07-29T03:40:38;3.20;;;1.33;;
52786;SDS011;38661;53.152;5.846;2022-07-29T03:43:15;5.03;;;1.63;;
52786;SDS011;38661;53.152;5.846;2022-07-29T03:45:42;3.38;;;1.50;;
52786;SDS011;38661;53.152;5.846;2022-07-29T03:48:12;3.40;;;1.60;;
52786;SDS011;38661;53.152;5.846;2022-07-29T03:50:42;3.65;;;1.80;;
52786;SDS011;38661;53.152;5.846;2022-07-29T03:53:08;4.00;;;1.55;;
52786;SDS011;38661;53.152;5.846;2022-07-29T03:55:36;5.93;;;2.03;;
52786;SDS011;38661;53.152;5.846;2022-07-29T03:58:08;3.95;;;1.90;;
52786;SDS011;38661;53.152;5.846;2022-07-29T04:00:35;3.92;;;2.00;;
52786;SDS011;38661;53.152;5.846;2022-07-29T04:03:02;3.20;;;1.63;;
52786;SDS011;38661;53.152;5.846;2022-07-29T04:05:29;3.63;;;1.70;;
52786;SDS011;38661;53.152;5.846;2022-07-29T04:07:55;2.63;;;1.48;;
52786;SDS011;38661;53.152;5.846;2022-07-29T04:10:21;2.50;;;1.40;;
52786;SDS011;38661;53.152;5.846;2022-07-29T04:12:48;3.58;;;1.60;;
52786;SDS011;38661;53.152;5.846;2022-07-29T04:15:14;3.35;;;1.40;;
52786;SDS011;38661;53.152;5.846;2022-07-29T04:17:40;3.45;;;1.40;;
52786;SDS011;38661;53.152;5.846;2022-07-29T04:20:06;2.60;;;1.50;;
52786;SDS011;38661;53.152;5.846;2022-07-29T04:22:32;4.32;;;1.63;;
52786;SDS011;38661;53.152;5.846;2022-07-29T04:24:57;5.50;;;1.80;;
52786;SDS011;38661;53.152;5.846;2022-07-29T04:27:23;3.22;;;1.50;;
52786;SDS011;38661;53.152;5.846;2022-07-29T04:29:49;3.00;;;1.25;;
52786;SDS011;38661;53.152;5.846;2022-07-29T04:32:14;3.25;;;1.50;;
52786;SDS011;38661;53.152;5.846;2022-07-29T04:34:40;5.45;;;1.50;;
52786;SDS011;38661;53.152;5.846;2022-07-29T04:37:06;4.30;;;1.52;;
52786;SDS011;38661;53.152;5.846;2022-07-29T04:39:31;6.13;;;1.58;;
52786;SDS011;38661;53.152;5.846;2022-07-29T04:41:57;3.70;;;2.00;;
52786;SDS011;38661;53.152;5.846;2022-07-29T04:44:23;6.65;;;1.85;;
52786;SDS011;38661;53.152;5.846;2022-07-29T04:46:48;2.45;;;1.25;;
52786;SDS011;38661;53.152;5.846;2022-07-29T04:49:14;5.10;;;1.98;;
52786;SDS011;38661;53.152;5.846;2022-07-29T04:51:40;3.53;;;1.27;;
52786;SDS011;38661;53.152;5.846;2022-07-29T04:54:05;3.60;;;1.98;;
52786;SDS011;38661;53.152;5.846;2022-07-29T04:56:31;5.32;;;1.63;;
52786;SDS011;38661;53.152;5.846;2022-07-29T04:58:57;5.00;;;1.80;;
52786;SDS011;38661;53.152;5.846;2022-07-29T05:01:22;4.72;;;1.80;;
52786;SDS011;38661;53.152;5.846;2022-07-29T05:03:48;5.22;;;2.00;;
52786;SDS011;38661;53.152;5.846;2022-07-29T05:06:14;2.33;;;1.40;;
52786;SDS011;38661;53.152;5.846;2022-07-29T05:08:39;3.00;;;1.30;;
52786;SDS011;38661;53.152;5.846;2022-07-29T05:11:05;2.05;;;1.33;;
52786;SDS011;38661;53.152;5.846;2022-07-29T05:13:31;6.30;;;1.75;;
52786;SDS011;38661;53.152;5.846;2022-07-29T05:15:56;3.50;;;1.25;;
52786;SDS011;38661;53.152;5.846;2022-07-29T05:18:23;4.25;;;1.55;;
52786;SDS011;38661;53.152;5.846;2022-07-29T05:20:50;6.80;;;1.70;;
52786;SDS011;38661;53.152;5.846;2022-07-29T05:23:15;3.08;;;1.50;;
52786;SDS011;38661;53.152;5.846;2022-07-29T05:25:41;3.42;;;1.20;;
52786;SDS011;38661;53.152;5.846;2022-07-29T05:28:07;3.67;;;1.50;;
52786;SDS011;38661;53.152;5.846;2022-07-29T05:30:33;3.47;;;1.50;;
52786;SDS011;38661;53.152;5.846;2022-07-29T05:32:58;5.25;;;1.40;;
52786;SDS011;38661;53.152;5.846;2022-07-29T05:35:24;5.07;;;1.25;;
52786;SDS011;38661;53.152;5.846;2022-07-29T05:37:50;5.43;;;1.40;;
52786;SDS011;38661;53.152;5.846;2022-07-29T05:40:15;2.95;;;1.88;;
52786;SDS011;38661;53.152;5.846;2022-07-29T05:42:41;5.38;;;1.52;;
52786;SDS011;38661;53.152;5.846;2022-07-29T05:45:07;2.55;;;1.50;;
52786;SDS011;38661;53.152;5.846;2022-07-29T05:47:34;3.05;;;1.40;;
52786;SDS011;38661;53.152;5.846;2022-07-29T05:49:59;5.22;;;1.60;;
52786;SDS011;38661;53.152;5.846;2022-07-29T05:52:25;3.38;;;1.40;;
52786;SDS011;38661;53.152;5.846;2022-07-29T05:54:51;3.22;;;1.45;;
52786;SDS011;38661;53.152;5.846;2022-07-29T05:57:21;4.68;;;1.45;;
52786;SDS011;38661;53.152;5.846;2022-07-29T05:59:48;4.63;;;1.27;;
52786;SDS011;38661;53.152;5.846;2022-07-29T06:02:15;5.00;;;1.90;;
52786;SDS011;38661;53.152;5.846;2022-07-29T06:04:41;4.72;;;1.25;;
52786;SDS011;38661;53.152;5.846;2022-07-29T06:07:07;4.57;;;1.65;;
52786;SDS011;38661;53.152;5.846;2022-07-29T06:09:33;4.07;;;1.70;;
52786;SDS011;38661;53.152;5.846;2022-07-29T06:11:59;5.47;;;1.50;;
52786;SDS011;38661;53.152;5.846;2022-07-29T06:14:25;3.50;;;1.55;;
52786;SDS011;38661;53.152;5.846;2022-07-29T06:16:51;5.32;;;2.03;;
52786;SDS011;38661;53.152;5.846;2022-07-29T06:19:18;2.60;;;1.50;;
52786;SDS011;38661;53.152;5.846;2022-07-29T06:21:44;4.25;;;1.27;;
52786;SDS011;38661;53.152;5.846;2022-07-29T06:24:12;4.18;;;1.73;;
52786;SDS011;38661;53.152;5.846;2022-07-29T06:26:38;3.55;;;1.50;;
52786;SDS011;38661;53.152;5.846;2022-07-29T06:29:05;3.13;;;1.42;;
52786;SDS011;38661;53.152;5.846;2022-07-29T06:31:31;4.28;;;1.70;;
52786;SDS011;38661;53.152;5.846;2022-07-29T06:33:57;7.35;;;2.15;;
52786;SDS011;38661;53.152;5.846;2022-07-29T06:36:22;6.63;;;1.90;;
52786;SDS011;38661;53.152;5.846;2022-07-29T06:38:48;2.78;;;1.48;;
52786;SDS011;38661;53.152;5.846;2022-07-29T06:41:14;5.90;;;1.70;;
52786;SDS011;38661;53.152;5.846;2022-07-29T06:43:41;5.13;;;1.92;;
52786;SDS011;38661;53.152;5.846;2022-07-29T06:46:09;4.82;;;1.67;;
52786;SDS011;38661;53.152;5.846;2022-07-29T06:48:36;5.68;;;1.58;;
52786;SDS011;38661;53.152;5.846;2022-07-29T06:51:03;5.93;;;2.22;;
52786;SDS011;38661;53.152;5.846;2022-07-29T06:53:29;3.33;;;1.65;;
52786;SDS011;38661;53.152;5.846;2022-07-29T06:55:55;6.38;;;1.50;;
52786;SDS011;38661;53.152;5.846;2022-07-29T06:58:23;5.45;;;1.63;;
52786;SDS011;38661;53.152;5.846;2022-07-29T07:00:49;3.22;;;1.60;;
52786;SDS011;38661;53.152;5.846;2022-07-29T07:03:15;4.45;;;1.58;;
52786;SDS011;38661;53.152;5.846;2022-07-29T07:05:42;4.47;;;1.70;;
52786;SDS011;38661;53.152;5.846;2022-07-29T07:08:08;3.20;;;1.42;;
52786;SDS011;38661;53.152;5.846;2022-07-29T07:10:33;4.80;;;1.83;;
52786;SDS011;38661;53.152;5.846;2022-07-29T07:13:00;2.80;;;1.55;;
52786;SDS011;38661;53.152;5.846;2022-07-29T07:15:26;6.55;;;1.92;;
52786;SDS011;38661;53.152;5.846;2022-07-29T07:17:52;3.10;;;1.33;;
52786;SDS011;38661;53.152;5.846;2022-07-29T07:20:18;4.78;;;1.75;;
52786;SDS011;38661;53.152;5.846;2022-07-29T07:22:44;7.78;;;2.00;;
52786;SDS011;38661;53.152;5.846;2022-07-29T07:25:10;4.72;;;1.88;;
52786;SDS011;38661;53.152;5.846;2022-07-29T07:27:36;3.55;;;1.73;;
52786;SDS011;38661;53.152;5.846;2022-07-29T07:30:03;6.97;;;1.70;;
52786;SDS011;38661;53.152;5.846;2022-07-29T07:32:33;5.95;;;1.77;;
52786;SDS011;38661;53.152;5.846;2022-07-29T07:34:59;4.28;;;2.35;;
52786;SDS011;38661;53.152;5.846;2022-07-29T07:37:25;5.30;;;1.92;;
52786;SDS011;38661;53.152;5.846;2022-07-29T07:39:52;2.58;;;1.60;;
52786;SDS011;38661;53.152;5.846;2022-07-29T07:42:18;4.18;;;1.85;;
52786;SDS011;38661;53.152;5.846;2022-07-29T07:44:44;5.20;;;2.03;;
52786;SDS011;38661;53.152;5.846;2022-07-29T07:47:13;5.75;;;1.52;;
52786;SDS011;38661;53.152;5.846;2022-07-29T07:49:40;5.68;;;2.63;;
52786;SDS011;38661;53.152;5.846;2022-07-29T07:52:06;6.05;;;2.17;;
52786;SDS011;38661;53.152;5.846;2022-07-29T07:54:31;4.75;;;1.95;;
52786;SDS011;38661;53.152;5.846;2022-07-29T07:56:57;4.47;;;1.70;;
52786;SDS011;38661;53.152;5.846;2022-07-29T07:59:23;3.25;;;1.92;;
52786;SDS011;38661;53.152;5.846;2022-07-29T08:01:49;5.68;;;1.95;;
52786;SDS011;38661;53.152;5.846;2022-07-29T08:04:15;4.82;;;1.77;;
52786;SDS011;38661;53.152;5.846;2022-07-29T08:06:41;4.43;;;1.65;;
52786;SDS011;38661;53.152;5.846;2022-07-29T08:09:07;5.90;;;1.80;;
52786;SDS011;38661;53.152;5.846;2022-07-29T08:11:33;4.43;;;1.85;;
52786;SDS011;38661;53.152;5.846;2022-07-29T08:13:59;7.50;;;2.03;;
52786;SDS011;38661;53.152;5.846;2022-07-29T08:16:26;4.22;;;2.03;;
52786;SDS011;38661;53.152;5.846;2022-07-29T08:18:52;6.90;;;2.53;;
52786;SDS011;38661;53.152;5.846;2022-07-29T08:21:22;4.68;;;2.08;;
52786;SDS011;38661;53.152;5.846;2022-07-29T08:23:49;4.78;;;1.80;;
52786;SDS011;38661;53.152;5.846;2022-07-29T08:26:17;5.38;;;1.70;;
52786;SDS011;38661;53.152;5.846;2022-07-29T08:28:47;5.35;;;2.25;;
52786;SDS011;38661;53.152;5.846;2022-07-29T08:31:15;3.03;;;1.75;;
52786;SDS011;38661;53.152;5.846;2022-07-29T08:33:42;4.03;;;1.80;;
52786;SDS011;38661;53.152;5.846;2022-07-29T08:36:07;6.63;;;2.33;;
52786;SDS011;38661;53.152;5.846;2022-07-29T08:38:33;6.43;;;2.30;;
52786;SDS011;38661;53.152;5.846;2022-07-29T08:41:00;4.93;;;1.40;;
52786;SDS011;38661;53.152;5.846;2022-07-29T08:43:26;4.28;;;2.00;;
52786;SDS011;38661;53.152;5.846;2022-07-29T08:45:53;5.20;;;2.20;;
52786;SDS011;38661;53.152;5.846;2022-07-29T08:48:19;13.07;;;6.90;;
52786;SDS011;38661;53.152;5.846;2022-07-29T08:50:47;8.55;;;4.30;;
52786;SDS011;38661;53.152;5.846;2022-07-29T08:53:17;8.15;;;2.75;;
52786;SDS011;38661;53.152;5.846;2022-07-29T08:55:44;7.93;;;2.75;;
52786;SDS011;38661;53.152;5.846;2022-07-29T08:58:11;5.72;;;2.42;;
52786;SDS011;38661;53.152;5.846;2022-07-29T09:00:40;7.35;;;3.13;;
52786;SDS011;38661;53.152;5.846;2022-07-29T09:03:15;5.85;;;2.13;;
52786;SDS011;38661;53.152;5.846;2022-07-29T09:05:47;4.93;;;2.60;;
52786;SDS011;38661;53.152;5.846;2022-07-29T09:08:13;6.13;;;2.80;;
52786;SDS011;38661;53.152;5.846;2022-07-29T09:10:40;4.45;;;2.60;;
52786;SDS011;38661;53.152;5.846;2022-07-29T09:13:07;5.60;;;2.75;;
52786;SDS011;38661;53.152;5.846;2022-07-29T09:15:33;6.15;;;2.58;;
52786;SDS011;38661;53.152;5.846;2022-07-29T09:17:58;4.20;;;2.40;;
52786;SDS011;38661;53.152;5.846;2022-07-29T09:20:25;6.95;;;2.28;;
52786;SDS011;38661;53.152;5.846;2022-07-29T09:23:11;8.25;;;2.20;;
52786;SDS011;38661;53.152;5.846;2022-07-29T09:25:38;4.78;;;2.22;;
52786;SDS011;38661;53.152;5.846;2022-07-29T09:28:12;6.35;;;2.38;;
52786;SDS011;38661;53.152;5.846;2022-07-29T09:30:57;6.65;;;2.92;;
52786;SDS011;38661;53.152;5.846;2022-07-29T09:33:24;4.50;;;2.10;;
52786;SDS011;38661;53.152;5.846;2022-07-29T09:35:59;5.72;;;2.53;;
52786;SDS011;38661;53.152;5.846;2022-07-29T09:38:27;5.35;;;2.40;;
52786;SDS011;38661;53.152;5.846;2022-07-29T09:40:57;7.50;;;2.33;;
52786;SDS011;38661;53.152;5.846;2022-07-29T09:43:24;7.25;;;2.25;;
52786;SDS011;38661;53.152;5.846;2022-07-29T09:45:50;6.50;;;2.38;;
52786;SDS011;38661;53.152;5.846;2022-07-29T09:48:23;8.63;;;2.13;;
52786;SDS011;38661;53.152;5.846;2022-07-29T09:50:50;6.18;;;2.33;;
52786;SDS011;38661;53.152;5.846;2022-07-29T09:53:29;5.45;;;2.22;;
52786;SDS011;38661;53.152;5.846;2022-07-29T09:56:03;3.50;;;2.10;;
52786;SDS011;38661;53.152;5.846;2022-07-29T09:58:30;4.63;;;2.53;;
52786;SDS011;38661;53.152;5.846;2022-07-29T10:00:58;4.75;;;2.13;;
52786;SDS011;38661;53.152;5.846;2022-07-29T10:03:24;3.83;;;2.40;;
52786;SDS011;38661;53.152;5.846;2022-07-29T10:06:06;3.72;;;2.70;;
52786;SDS011;38661;53.152;5.846;2022-07-29T10:08:33;5.00;;;2.05;;
52786;SDS011;38661;53.152;5.846;2022-07-29T10:11:09;5.18;;;2.53;;
52786;SDS011;38661;53.152;5.846;2022-07-29T10:13:41;6.22;;;2.85;;
52786;SDS011;38661;53.152;5.846;2022-07-29T10:16:08;4.82;;;2.50;;
52786;SDS011;38661;53.152;5.846;2022-07-29T10:18:34;9.13;;;3.38;;
52786;SDS011;38661;53.152;5.846;2022-07-29T10:21:00;8.90;;;3.25;;
52786;SDS011;38661;53.152;5.846;2022-07-29T10:23:27;4.82;;;2.58;;
52786;SDS011;38661;53.152;5.846;2022-07-29T10:25:54;7.10;;;3.03;;
52786;SDS011;38661;53.152;5.846;2022-07-29T10:28:19;7.13;;;2.92;;
52786;SDS011;38661;53.152;5.846;2022-07-29T10:30:45;4.68;;;2.55;;
52786;SDS011;38661;53.152;5.846;2022-07-29T10:36:15;6.13;;;2.75;;
52786;SDS011;38661;53.152;5.846;2022-07-29T10:44:05;6.68;;;2.63;;
52786;SDS011;38661;53.152;5.846;2022-07-29T10:46:37;5.60;;;2.80;;
52786;SDS011;38661;53.152;5.846;2022-07-29T10:49:20;6.25;;;2.53;;
52786;SDS011;38661;53.152;5.846;2022-07-29T10:51:55;8.82;;;2.53;;
52786;SDS011;38661;53.152;5.846;2022-07-29T10:57:16;8.80;;;3.03;;
52786;SDS011;38661;53.152;5.846;2022-07-29T10:59:43;9.52;;;6.60;;
52786;SDS011;38661;53.152;5.846;2022-07-29T11:07:27;7.15;;;2.60;;
52786;SDS011;38661;53.152;5.846;2022-07-29T11:15:02;6.45;;;3.42;;
52786;SDS011;38661;53.152;5.846;2022-07-29T11:25:46;6.80;;;2.67;;
52786;SDS011;38661;53.152;5.846;2022-07-29T11:28:34;6.35;;;2.75;;
52786;SDS011;38661;53.152;5.846;2022-07-29T11:31:07;7.03;;;3.00;;
52786;SDS011;38661;53.152;5.846;2022-07-29T11:33:35;5.57;;;2.30;;
52786;SDS011;38661;53.152;5.846;2022-07-29T11:36:11;6.43;;;3.03;;
52786;SDS011;38661;53.152;5.846;2022-07-29T11:38:39;3.45;;;2.47;;
52786;SDS011;38661;53.152;5.846;2022-07-29T11:43:54;7.63;;;3.47;;
52786;SDS011;38661;53.152;5.846;2022-07-29T11:46:43;6.07;;;2.78;;
52786;SDS011;38661;53.152;5.846;2022-07-29T11:49:21;5.07;;;2.85;;
52786;SDS011;38661;53.152;5.846;2022-07-29T11:51:54;5.95;;;2.97;;
52786;SDS011;38661;53.152;5.846;2022-07-29T11:54:30;5.82;;;3.10;;
52786;SDS011;38661;53.152;5.846;2022-07-29T11:56:58;5.72;;;2.95;;
52786;SDS011;38661;53.152;5.846;2022-07-29T11:59:25;7.43;;;2.95;;
52786;SDS011;38661;53.152;5.846;2022-07-29T12:01:55;10.52;;;2.90;;
52786;SDS011;38661;53.152;5.846;2022-07-29T12:04:22;6.70;;;2.90;;
52786;SDS011;38661;53.152;5.846;2022-07-29T12:06:52;5.45;;;2.20;;
52786;SDS011;38661;53.152;5.846;2022-07-29T12:09:19;4.82;;;2.67;;
52786;SDS011;38661;53.152;5.846;2022-07-29T12:11:46;4.97;;;2.50;;
52786;SDS011;38661;53.152;5.846;2022-07-29T12:14:31;6.90;;;2.72;;
52786;SDS011;38661;53.152;5.846;2022-07-29T12:16:58;7.93;;;2.50;;
52786;SDS011;38661;53.152;5.846;2022-07-29T12:19:25;11.68;;;5.18;;
52786;SDS011;38661;53.152;5.846;2022-07-29T12:21:52;7.97;;;4.03;;
52786;SDS011;38661;53.152;5.846;2022-07-29T12:24:19;5.88;;;2.90;;
52786;SDS011;38661;53.152;5.846;2022-07-29T12:26:56;6.15;;;2.83;;
52786;SDS011;38661;53.152;5.846;2022-07-29T12:29:24;7.22;;;3.38;;
52786;SDS011;38661;53.152;5.846;2022-07-29T12:31:52;3.70;;;2.45;;
52786;SDS011;38661;53.152;5.846;2022-07-29T12:34:23;5.40;;;2.70;;
52786;SDS011;38661;53.152;5.846;2022-07-29T12:36:51;8.82;;;2.90;;
52786;SDS011;38661;53.152;5.846;2022-07-29T12:39:17;6.70;;;3.05;;
52786;SDS011;38661;53.152;5.846;2022-07-29T12:41:43;6.82;;;3.20;;
52786;SDS011;38661;53.152;5.846;2022-07-29T12:44:09;6.55;;;2.85;;
52786;SDS011;38661;53.152;5.846;2022-07-29T12:46:36;5.63;;;3.13;;
52786;SDS011;38661;53.152;5.846;2022-07-29T12:49:01;3.85;;;2.50;;
52786;SDS011;38661;53.152;5.846;2022-07-29T12:51:28;6.75;;;2.78;;
52786;SDS011;38661;53.152;5.846;2022-07-29T12:54:06;6.35;;;3.10;;
52786;SDS011;38661;53.152;5.846;2022-07-29T12:59:15;5.70;;;2.90;;
52786;SDS011;38661;53.152;5.846;2022-07-29T13:01:43;6.13;;;2.80;;
52786;SDS011;38661;53.152;5.846;2022-07-29T13:04:13;7.60;;;2.95;;
52786;SDS011;38661;53.152;5.846;2022-07-29T13:07:00;7.68;;;3.22;;
52786;SDS011;38661;53.152;5.846;2022-07-29T13:09:38;7.32;;;3.15;;
52786;SDS011;38661;53.152;5.846;2022-07-29T13:12:09;8.25;;;3.00;;
52786;SDS011;38661;53.152;5.846;2022-07-29T13:14:40;6.60;;;3.30;;
52786;SDS011;38661;53.152;5.846;2022-07-29T13:17:08;8.55;;;3.75;;
52786;SDS011;38661;53.152;5.846;2022-07-29T13:19:38;6.45;;;3.30;;
52786;SDS011;38661;53.152;5.846;2022-07-29T13:22:23;6.07;;;3.45;;
52786;SDS011;38661;53.152;5.846;2022-07-29T13:24:50;10.90;;;3.58;;
52786;SDS011;38661;53.152;5.846;2022-07-29T13:27:24;8.20;;;3.58;;
52786;SDS011;38661;53.152;5.846;2022-07-29T13:29:56;6.53;;;3.38;;
52786;SDS011;38661;53.152;5.846;2022-07-29T13:32:23;7.20;;;3.70;;
52786;SDS011;38661;53.152;5.846;2022-07-29T13:34:50;7.03;;;3.88;;
52786;SDS011;38661;53.152;5.846;2022-07-29T13:37:16;6.53;;;4.07;;
52786;SDS011;38661;53.152;5.846;2022-07-29T13:39:43;7.93;;;4.45;;
52786;SDS011;38661;53.152;5.846;2022-07-29T13:42:08;9.35;;;4.60;;
52786;SDS011;38661;53.152;5.846;2022-07-29T13:44:34;14.35;;;5.55;;
52786;SDS011;38661;53.152;5.846;2022-07-29T13:47:01;6.05;;;3.97;;
52786;SDS011;38661;53.152;5.846;2022-07-29T13:49:27;7.32;;;3.72;;
52786;SDS011;38661;53.152;5.846;2022-07-29T13:51:53;6.15;;;4.18;;
52786;SDS011;38661;53.152;5.846;2022-07-29T13:54:19;9.02;;;3.97;;
52786;SDS011;38661;53.152;5.846;2022-07-29T13:56:44;9.55;;;4.30;;
52786;SDS011;38661;53.152;5.846;2022-07-29T13:59:10;7.70;;;4.20;;
52786;SDS011;38661;53.152;5.846;2022-07-29T14:01:36;11.20;;;4.60;;
52786;SDS011;38661;53.152;5.846;2022-07-29T14:04:03;5.40;;;4.00;;
52786;SDS011;38661;53.152;5.846;2022-07-29T14:06:28;12.80;;;4.82;;
52786;SDS011;38661;53.152;5.846;2022-07-29T14:08:54;9.43;;;4.90;;
52786;SDS011;38661;53.152;5.846;2022-07-29T14:11:20;9.60;;;4.60;;
52786;SDS011;38661;53.152;5.846;2022-07-29T14:13:46;9.32;;;4.07;;
52786;SDS011;38661;53.152;5.846;2022-07-29T14:16:12;8.15;;;4.15;;
52786;SDS011;38661;53.152;5.846;2022-07-29T14:18:38;9.70;;;4.47;;
52786;SDS011;38661;53.152;5.846;2022-07-29T14:21:03;6.35;;;3.92;;
52786;SDS011;38661;53.152;5.846;2022-07-29T14:23:29;7.30;;;4.35;;
52786;SDS011;38661;53.152;5.846;2022-07-29T14:25:55;6.43;;;3.72;;
52786;SDS011;38661;53.152;5.846;2022-07-29T14:28:20;11.43;;;4.40;;
52786;SDS011;38661;53.152;5.846;2022-07-29T14:30:46;7.38;;;4.28;;
52786;SDS011;38661;53.152;5.846;2022-07-29T14:33:12;9.82;;;4.78;;
52786;SDS011;38661;53.152;5.846;2022-07-29T14:35:38;8.18;;;4.32;;
52786;SDS011;38661;53.152;5.846;2022-07-29T14:38:04;10.80;;;4.68;;
52786;SDS011;38661;53.152;5.846;2022-07-29T14:40:29;10.52;;;4.15;;
52786;SDS011;38661;53.152;5.846;2022-07-29T14:42:55;7.78;;;4.35;;
52786;SDS011;38661;53.152;5.846;2022-07-29T14:45:21;9.45;;;4.22;;
52786;SDS011;38661;53.152;5.846;2022-07-29T14:47:47;6.28;;;3.45;;
52786;SDS011;38661;53.152;5.846;2022-07-29T14:50:15;8.35;;;4.10;;
52786;SDS011;38661;53.152;5.846;2022-07-29T14:52:40;9.52;;;3.95;;
52786;SDS011;38661;53.152;5.846;2022-07-29T14:55:06;8.57;;;4.45;;
52786;SDS011;38661;53.152;5.846;2022-07-29T14:57:32;10.82;;;4.72;;
52786;SDS011;38661;53.152;5.846;2022-07-29T14:59:58;7.03;;;3.63;;
52786;SDS011;38661;53.152;5.846;2022-07-29T15:02:24;11.57;;;4.43;;
52786;SDS011;38661;53.152;5.846;2022-07-29T15:04:50;5.80;;;3.67;;
52786;SDS011;38661;53.152;5.846;2022-07-29T15:07:15;5.60;;;3.70;;
52786;SDS011;38661;53.152;5.846;2022-07-29T15:09:41;9.00;;;4.05;;
52786;SDS011;38661;53.152;5.846;2022-07-29T15:12:07;9.43;;;3.90;;
52786;SDS011;38661;53.152;5.846;2022-07-29T15:14:35;7.10;;;3.97;;
52786;SDS011;38661;53.152;5.846;2022-07-29T15:17:01;7.05;;;4.30;;
52786;SDS011;38661;53.152;5.846;2022-07-29T15:19:26;8.43;;;4.22;;
52786;SDS011;38661;53.152;5.846;2022-07-29T15:21:52;9.52;;;4.00;;
52786;SDS011;38661;53.152;5.846;2022-07-29T15:24:18;7.75;;;4.20;;
52786;SDS011;38661;53.152;5.846;2022-07-29T15:26:44;9.40;;;3.60;;
52786;SDS011;38661;53.152;5.846;2022-07-29T15:29:10;7.80;;;3.78;;
52786;SDS011;38661;53.152;5.846;2022-07-29T15:31:36;10.15;;;3.92;;
52786;SDS011;38661;53.152;5.846;2022-07-29T15:34:02;8.77;;;3.67;;
52786;SDS011;38661;53.152;5.846;2022-07-29T15:36:28;7.32;;;4.30;;
52786;SDS011;38661;53.152;5.846;2022-07-29T15:38:53;7.68;;;4.60;;
52786;SDS011;38661;53.152;5.846;2022-07-29T15:41:20;9.88;;;4.30;;
52786;SDS011;38661;53.152;5.846;2022-07-29T15:43:47;4.78;;;3.28;;